Time;durP1;ratioP1;P1;durP2;ratioP2;P2;SDS_P1;SDS_P2;PMS_P1;PMS_P2;Temp;Humidity;BMP_temperature;BMP_pressure;BME280_temperature;BME280_humidity;BME280_pressure;Samples;Min_cycle;Max_cycle;Signal;HPM_P1;HPM_P2
2022/03/19 00:01:27;;;;;;;15.40;4.90;;;;;;;18.08;39.11;104518.88;5020361;28;20477;-72
2022/03/19 00:03:53;;;;;;;16.20;5.00;;;;;;;18.75;37.71;104527.00;5031887;28;20037;-72
2022/03/19 00:06:19;;;;;;;14.93;5.00;;;;;;;18.11;38.72;104526.91;5031220;28;20033;-72
2022/03/19 00:08:45;;;;;;;14.87;5.27;;;;;;;19.09;36.64;104527.47;5032478;28;20026;-72
2022/03/19 00:11:11;;;;;;;18.47;4.97;;;;;;;18.19;38.52;104530.56;5031242;28;20056;-72
2022/03/19 00:13:36;;;;;;;11.97;4.83;;;;;;;18.65;37.89;104530.38;5032954;28;20069;-71
2022/03/19 00:16:01;;;;;;;13.83;5.00;;;;;;;19.33;36.06;104526.00;5030778;28;20029;-71
2022/03/19 00:18:27;;;;;;;12.07;4.60;;;;;;;18.63;37.70;104532.13;5029785;28;20033;-72
2022/03/19 00:20:53;;;;;;;9.53;4.00;;;;;;;18.81;36.89;104532.38;5029404;28;20053;-72
2022/03/19 00:23:18;;;;;;;15.00;4.83;;;;;;;18.94;36.89;104527.28;5032142;28;20025;-72
2022/03/19 00:25:44;;;;;;;11.70;5.20;;;;;;;19.09;36.93;104526.59;5030350;28;20030;-72
2022/03/19 00:28:09;;;;;;;15.93;4.47;;;;;;;17.46;39.99;104531.88;5035234;28;20021;-72
2022/03/19 00:30:35;;;;;;;20.67;5.33;;;;;;;18.71;37.71;104535.78;5031877;28;20025;-72
2022/03/19 00:33:00;;;;;;;11.00;4.73;;;;;;;18.50;37.89;104541.63;5031193;28;20037;-72
2022/03/19 00:35:25;;;;;;;11.23;4.87;;;;;;;18.73;37.46;104539.34;5030415;28;20057;-71
2022/03/19 00:37:53;;;;;;;11.77;4.93;;;;;;;18.79;37.43;104542.09;5031305;28;20026;-72
2022/03/19 00:40:21;;;;;;;14.60;5.07;;;;;;;18.01;38.64;104543.47;5031414;28;20553;-72
2022/03/19 00:42:50;;;;;;;15.27;6.87;;;;;;;19.19;36.59;104538.19;5033117;28;20037;-72
2022/03/19 00:45:16;;;;;;;12.67;5.73;;;;;;;18.14;38.56;104546.38;5028473;28;20021;-71
2022/03/19 00:47:41;;;;;;;15.23;5.87;;;;;;;18.22;38.96;104545.63;5030059;28;20504;-71
2022/03/19 00:50:08;;;;;;;13.77;4.67;;;;;;;18.06;38.76;104540.03;5029792;28;20021;-71
2022/03/19 00:52:33;;;;;;;17.70;5.53;;;;;;;18.63;37.73;104537.44;5031994;28;20477;-71
2022/03/19 00:54:59;;;;;;;18.23;5.00;;;;;;;17.05;41.00;104536.28;5030904;28;20029;-71
2022/03/19 00:57:24;;;;;;;14.63;4.73;;;;;;;17.56;40.14;104538.25;5030922;28;20123;-71
2022/03/19 00:59:50;;;;;;;10.43;4.20;;;;;;;18.49;38.32;104539.84;5030031;28;20028;-71
2022/03/19 01:02:16;;;;;;;15.27;5.43;;;;;;;18.70;37.79;104544.59;5030235;28;20029;-71
2022/03/19 01:04:41;;;;;;;18.17;6.03;;;;;;;17.46;40.54;104549.47;5031334;28;20035;-71
2022/03/19 01:07:06;;;;;;;14.27;5.10;;;;;;;17.71;39.63;104537.66;5031348;28;20072;-71
2022/03/19 01:09:31;;;;;;;17.27;5.20;;;;;;;17.07;40.70;104543.41;5031303;28;20022;-71
2022/03/19 01:11:57;;;;;;;15.10;4.47;;;;;;;17.51;40.22;104534.59;5013728;28;20412;-72
2022/03/19 01:14:22;;;;;;;11.93;4.57;;;;;;;17.67;40.49;104535.81;5031363;28;20044;-72
2022/03/19 01:16:47;;;;;;;13.77;5.13;;;;;;;17.88;39.77;104537.06;5030046;28;20041;-71
2022/03/19 01:19:13;;;;;;;14.23;4.77;;;;;;;16.78;41.21;104530.41;5031114;28;20049;-71
2022/03/19 01:21:39;;;;;;;17.30;5.30;;;;;;;17.77;39.81;104527.16;5024175;28;20096;-71
2022/03/19 01:24:05;;;;;;;13.37;5.87;;;;;;;17.39;40.22;104530.00;5016386;28;20036;-71
2022/03/19 01:26:31;;;;;;;12.77;4.63;;;;;;;16.56;42.18;104522.88;5014145;28;20060;-71
2022/03/19 01:28:57;;;;;;;13.00;4.33;;;;;;;17.04;40.77;104529.25;5027432;28;20036;-71
2022/03/19 01:31:25;;;;;;;16.93;5.20;;;;;;;16.79;41.57;104531.31;5028164;28;20021;-71
2022/03/19 01:33:54;;;;;;;15.97;5.00;;;;;;;18.30;38.78;104522.81;5025281;28;20445;-71
2022/03/19 01:36:20;;;;;;;15.77;4.80;;;;;;;17.08;40.94;104528.47;5022005;28;20512;-72
2022/03/19 01:38:45;;;;;;;19.07;5.63;;;;;;;17.36;40.22;104521.97;5041023;28;20021;-71
2022/03/19 01:41:10;;;;;;;9.83;4.23;;;;;;;17.91;38.64;104518.59;5033514;28;20892;-71
2022/03/19 01:43:37;;;;;;;12.03;5.10;;;;;;;17.43;40.34;104521.25;5032315;28;20095;-71
2022/03/19 01:46:02;;;;;;;13.07;4.20;;;;;;;16.83;40.90;104526.97;5030500;28;20025;-71
2022/03/19 01:48:28;;;;;;;10.07;3.80;;;;;;;17.74;39.34;104515.66;5030411;28;20120;-72
2022/03/19 01:50:53;;;;;;;13.60;4.80;;;;;;;17.77;39.24;104516.56;5021354;28;20049;-72
2022/03/19 01:53:19;;;;;;;16.43;4.73;;;;;;;16.36;42.65;104515.38;5023592;28;20029;-72
2022/03/19 01:55:45;;;;;;;19.70;4.80;;;;;;;17.78;39.46;104512.19;5030576;28;20036;-72
2022/03/19 01:58:10;;;;;;;13.20;5.33;;;;;;;18.16;38.46;104503.16;5026528;28;20436;-72
2022/03/19 02:00:37;;;;;;;21.47;5.53;;;;;;;18.52;37.55;104502.84;5030428;28;20026;-72
2022/03/19 02:03:03;;;;;;;9.97;4.80;;;;;;;17.87;38.86;104506.16;5030416;28;20067;-71
2022/03/19 02:05:29;;;;;;;12.67;4.67;;;;;;;18.17;38.03;104504.94;5030078;28;20025;-72
2022/03/19 02:07:55;;;;;;;16.03;5.70;;;;;;;17.86;38.51;104504.38;5030254;28;20057;-71
2022/03/19 02:10:26;;;;;;;15.90;6.47;;;;;;;17.46;39.63;104501.88;5030280;28;20020;-72
2022/03/19 02:12:52;;;;;;;18.83;7.80;;;;;;;17.92;38.54;104501.88;5030108;28;20384;-71
2022/03/19 02:15:18;;;;;;;19.90;7.10;;;;;;;17.03;40.44;104496.63;5026582;28;20040;-72
2022/03/19 02:17:43;;;;;;;12.57;5.13;;;;;;;17.83;38.65;104499.03;5013670;28;20025;-72
2022/03/19 02:20:09;;;;;;;9.57;4.67;;;;;;;16.78;40.82;104493.44;5028990;28;20045;-72
2022/03/19 02:22:35;;;;;;;12.20;5.30;;;;;;;16.90;40.00;104487.56;5017103;28;20086;-72
2022/03/19 02:27:45;;;;;;;13.80;4.20;;;;;;;16.93;40.00;104492.03;5030967;28;20135;-72
2022/03/19 02:30:13;;;;;;;12.87;4.03;;;;;;;16.07;41.61;104486.53;5030706;28;20104;-72
2022/03/19 02:32:40;;;;;;;15.80;4.37;;;;;;;17.08;39.83;104479.13;5028397;28;20548;-72
2022/03/19 02:35:06;;;;;;;10.63;4.90;;;;;;;16.74;40.78;104481.00;5029322;28;20025;-71
2022/03/19 02:37:38;;;;;;;8.97;3.70;;;;;;;16.79;41.34;104476.72;5031651;28;20025;-72
2022/03/19 02:40:04;;;;;;;18.35;3.90;;;;;;;18.13;37.86;104482.81;5028972;28;20546;-72
2022/03/19 02:42:29;;;;;;;16.40;3.70;;;;;;;15.52;42.72;104487.66;5027124;28;20037;-71
2022/03/19 02:44:54;;;;;;;10.00;3.83;;;;;;;16.36;41.23;104488.97;5028642;28;20029;-72
2022/03/19 02:47:20;;;;;;;9.53;3.27;;;;;;;16.62;40.79;104480.72;5027287;28;20143;-72
2022/03/19 02:49:45;;;;;;;17.03;4.37;;;;;;;16.45;41.11;104478.59;5029246;28;20127;-74
2022/03/19 02:52:11;;;;;;;16.30;4.10;;;;;;;15.82;41.85;104478.81;5047615;28;20052;-71
2022/03/19 02:54:36;;;;;;;16.50;3.73;;;;;;;16.66;40.58;104472.03;5032280;28;20033;-72
2022/03/19 02:57:02;;;;;;;10.83;3.97;;;;;;;17.15;39.34;104466.03;5028506;28;20495;-72
2022/03/19 02:59:30;;;;;;;10.43;3.50;;;;;;;16.89;39.23;104472.56;5028065;28;20056;-72
2022/03/19 03:01:56;;;;;;;11.80;3.67;;;;;;;16.37;40.61;104463.44;5027994;28;20026;-72
2022/03/19 03:04:23;;;;;;;10.07;3.93;;;;;;;17.55;38.22;104457.09;5028358;28;20033;-72
2022/03/19 03:06:51;;;;;;;10.07;3.53;;;;;;;16.10;40.60;104460.19;5030390;28;20397;-72
2022/03/19 03:09:21;;;;;;;18.47;4.43;;;;;;;16.58;39.90;104466.59;5058492;28;20021;-72
2022/03/19 03:11:47;;;;;;;19.63;3.80;;;;;;;16.02;40.68;104461.75;5029691;28;20034;-72
2022/03/19 03:14:13;;;;;;;13.17;3.47;;;;;;;15.82;41.08;104457.72;5027181;28;20040;-72
2022/03/19 03:16:41;;;;;;;12.80;3.67;;;;;;;17.06;38.90;104449.16;5029519;28;20040;-71
2022/03/19 03:19:08;;;;;;;14.37;3.97;;;;;;;16.27;40.68;104451.78;5026490;28;20374;-72
2022/03/19 03:21:34;;;;;;;13.07;4.23;;;;;;;17.16;38.86;104452.84;5030841;28;20053;-71
2022/03/19 03:24:00;;;;;;;12.17;4.33;;;;;;;15.53;41.73;104449.91;5028257;28;20043;-71
2022/03/19 03:26:26;;;;;;;9.57;4.03;;;;;;;16.19;40.66;104456.00;5028088;28;20049;-72
2022/03/19 03:28:52;;;;;;;13.63;3.97;;;;;;;15.97;40.73;104452.81;5045000;28;20029;-72
2022/03/19 03:31:17;;;;;;;18.13;4.67;;;;;;;15.89;41.07;104449.09;5028944;28;20474;-72
2022/03/19 03:33:43;;;;;;;15.33;4.27;;;;;;;15.89;40.41;104447.34;5028169;28;20040;-72
2022/03/19 03:36:08;;;;;;;14.87;4.23;;;;;;;15.13;42.20;104454.09;5029647;28;20048;-72
2022/03/19 03:38:33;;;;;;;14.53;4.53;;;;;;;15.83;40.86;104449.84;5028949;28;20164;-72
2022/03/19 03:40:59;;;;;;;14.93;4.47;;;;;;;16.08;40.42;104443.41;5028187;28;20040;-71
2022/03/19 03:43:25;;;;;;;11.50;3.97;;;;;;;15.50;41.41;104444.56;5023582;28;20041;-72
2022/03/19 03:45:50;;;;;;;7.63;3.77;;;;;;;15.43;41.94;104447.03;5029014;28;20076;-72
2022/03/19 03:48:16;;;;;;;11.67;3.93;;;;;;;16.42;39.80;104435.41;5031454;28;20064;-72
2022/03/19 03:50:42;;;;;;;14.93;3.93;;;;;;;15.75;40.64;104436.41;5028083;28;20453;-72
2022/03/19 03:53:08;;;;;;;12.37;3.97;;;;;;;16.11;40.03;104440.88;5027363;28;20180;-71
2022/03/19 03:55:34;;;;;;;12.50;4.30;;;;;;;15.67;41.00;104437.97;5029111;28;20033;-71
2022/03/19 03:58:01;;;;;;;11.00;4.33;;;;;;;14.96;42.34;104435.16;5012201;28;20041;-71
2022/03/19 04:00:27;;;;;;;13.10;4.83;;;;;;;16.27;39.48;104435.94;5016274;28;20363;-72
2022/03/19 04:02:52;;;;;;;17.63;3.83;;;;;;;14.89;42.02;104434.06;5033515;28;20128;-71
2022/03/19 04:05:18;;;;;;;17.17;3.57;;;;;;;15.51;41.32;104431.41;5040682;28;21572;-71
2022/03/19 04:07:44;;;;;;;14.80;3.97;;;;;;;15.05;41.95;104431.03;5027277;28;20060;-71
2022/03/19 04:10:10;;;;;;;14.80;4.60;;;;;;;15.24;41.91;104431.56;5028529;28;20076;-72
2022/03/19 04:12:36;;;;;;;19.60;4.60;;;;;;;16.06;39.80;104437.22;5030131;28;20037;-71
2022/03/19 04:15:01;;;;;;;12.83;3.67;;;;;;;15.35;41.21;104435.38;5017639;28;20791;-71
2022/03/19 04:17:27;;;;;;;7.83;4.80;;;;;;;14.98;42.13;104429.06;5013073;28;20033;-71
2022/03/19 04:19:52;;;;;;;16.07;5.30;;;;;;;15.71;41.19;104426.63;5008876;28;20033;-71
2022/03/19 04:22:17;;;;;;;16.43;4.80;;;;;;;15.17;41.65;104429.63;5022156;28;20065;-71
2022/03/19 04:24:43;;;;;;;11.43;4.70;;;;;;;15.70;40.86;104427.53;5027373;28;20461;-71
2022/03/19 04:27:09;;;;;;;16.90;4.80;;;;;;;15.61;40.40;104424.63;5027441;28;20557;-71
2022/03/19 04:29:34;;;;;;;11.43;5.47;;;;;;;15.31;41.38;104430.88;5032701;28;20048;-72
2022/03/19 04:32:00;;;;;;;17.27;4.53;;;;;;;15.89;40.08;104422.72;5032012;28;20025;-71
2022/03/19 04:34:25;;;;;;;11.27;5.40;;;;;;;14.92;41.69;104423.66;5030700;28;20068;-71
2022/03/19 04:36:51;;;;;;;13.93;4.60;;;;;;;15.94;39.93;104426.38;5032588;28;20029;-71
2022/03/19 04:39:16;;;;;;;13.27;4.00;;;;;;;14.70;42.65;104425.66;5030463;28;20025;-71
2022/03/19 04:41:42;;;;;;;14.03;4.87;;;;;;;15.30;41.62;104431.72;5032396;28;20390;-72
2022/03/19 04:44:08;;;;;;;15.33;5.53;;;;;;;14.83;42.31;104432.16;5021594;28;20045;-72
2022/03/19 04:46:34;;;;;;;12.30;4.27;;;;;;;15.27;41.47;104429.00;5029323;28;20156;-71
2022/03/19 04:49:00;;;;;;;11.20;5.07;;;;;;;15.54;40.74;104417.44;5029708;28;20419;-71
2022/03/19 04:51:38;;;;;;;18.97;4.17;;;;;;;14.99;42.07;104424.69;5037833;28;20108;-71
2022/03/19 04:54:04;;;;;;;12.60;5.30;;;;;;;16.23;38.97;104418.25;5031764;28;20126;-73
2022/03/19 04:56:31;;;;;;;8.93;4.23;;;;;;;15.77;40.55;104423.25;5032750;28;20037;-72
2022/03/19 04:58:58;;;;;;;14.93;4.30;;;;;;;15.63;40.67;104416.75;5032861;28;20036;-72
2022/03/19 05:01:25;;;;;;;12.33;4.20;;;;;;;14.50;42.50;104421.50;5031515;28;20378;-71
2022/03/19 05:03:51;;;;;;;13.47;4.73;;;;;;;15.20;40.39;104411.25;5029492;28;20038;-72
2022/03/19 05:06:16;;;;;;;9.87;4.33;;;;;;;15.28;41.11;104428.16;5031360;28;20032;-73
2022/03/19 05:08:42;;;;;;;16.60;4.30;;;;;;;14.55;42.92;104417.25;5030827;28;20029;-72
2022/03/19 05:11:14;;;;;;;12.73;5.13;;;;;;;16.47;38.83;104407.34;5030883;28;20044;-73
2022/03/19 05:13:48;;;;;;;13.67;4.20;;;;;;;16.34;38.67;104410.59;5026342;28;20047;-71
2022/03/19 05:16:15;;;;;;;13.43;5.10;;;;;;;15.89;39.14;104415.69;5030831;28;20033;-71
2022/03/19 05:18:41;;;;;;;15.27;5.60;;;;;;;14.99;41.41;104415.06;5028534;28;20489;-71
2022/03/19 05:21:06;;;;;;;14.33;5.10;;;;;;;16.51;38.64;104408.31;5036238;28;20037;-72
2022/03/19 05:23:32;;;;;;;18.70;4.97;;;;;;;16.47;38.39;104417.91;5038954;28;20021;-71
2022/03/19 05:25:58;;;;;;;12.43;4.97;;;;;;;15.15;41.26;104421.63;5030608;28;20394;-71
2022/03/19 05:28:24;;;;;;;11.37;4.07;;;;;;;15.88;40.12;104411.28;5029472;28;20121;-72
2022/03/19 05:30:50;;;;;;;11.80;4.17;;;;;;;15.91;39.31;104416.63;5031441;28;20374;-72
2022/03/19 05:33:16;;;;;;;10.17;4.23;;;;;;;15.34;40.74;104422.16;5035623;28;20420;-72
2022/03/19 05:35:42;;;;;;;9.37;4.50;;;;;;;15.97;39.47;104410.59;5030203;28;20021;-72
2022/03/19 05:38:08;;;;;;;6.23;3.30;;;;;;;15.24;40.77;104416.63;5030311;28;20044;-72
2022/03/19 05:40:34;;;;;;;14.23;4.90;;;;;;;15.13;41.37;104418.09;5032560;28;20033;-72
2022/03/19 05:42:59;;;;;;;14.27;5.43;;;;;;;14.99;41.38;104409.81;5030762;28;20393;-73
2022/03/19 05:45:25;;;;;;;17.90;5.20;;;;;;;15.72;40.19;104419.63;5030250;28;20529;-71
2022/03/19 05:47:54;;;;;;;13.80;5.40;;;;;;;15.26;41.07;104414.03;5029890;28;20029;-72
2022/03/19 05:50:19;;;;;;;14.27;4.57;;;;;;;14.92;41.94;104413.13;5029472;28;20060;-72
2022/03/19 05:52:45;;;;;;;18.40;4.80;;;;;;;14.97;41.74;104418.50;5031026;28;20489;-72
2022/03/19 05:55:11;;;;;;;10.50;5.17;;;;;;;15.96;39.48;104414.09;5029897;28;20401;-73
2022/03/19 05:57:37;;;;;;;12.43;5.20;;;;;;;15.64;40.26;104415.91;5031181;28;20029;-72
2022/03/19 06:00:07;;;;;;;11.50;4.87;;;;;;;14.79;42.38;104426.78;5030915;28;20029;-72
2022/03/19 06:02:38;;;;;;;18.00;5.40;;;;;;;15.06;41.60;104427.56;5031013;28;20071;-71
2022/03/19 06:05:03;;;;;;;13.40;4.80;;;;;;;15.15;41.24;104426.03;5029737;28;20120;-73
2022/03/19 06:07:29;;;;;;;24.63;4.90;;;;;;;15.42;40.56;104421.50;5031394;28;20018;-72
2022/03/19 06:09:54;;;;;;;14.43;5.10;;;;;;;14.39;42.58;104432.56;5029736;28;20469;-72
2022/03/19 06:12:21;;;;;;;14.80;5.20;;;;;;;14.56;42.07;104430.47;5030961;28;20072;-73
2022/03/19 06:14:46;;;;;;;12.63;5.03;;;;;;;16.04;39.62;104423.09;5031592;28;20034;-72
2022/03/19 06:17:11;;;;;;;15.70;4.40;;;;;;;15.38;40.91;104430.19;5029672;28;20084;-72
2022/03/19 06:19:37;;;;;;;12.83;5.40;;;;;;;15.61;40.02;104433.44;5028659;28;20106;-72
2022/03/19 06:22:02;;;;;;;13.47;5.03;;;;;;;15.09;40.98;104427.63;5030005;28;20084;-72
2022/03/19 06:24:28;;;;;;;19.27;5.20;;;;;;;14.75;41.68;104426.69;5029534;28;20141;-72
2022/03/19 06:26:53;;;;;;;13.00;4.77;;;;;;;15.15;41.13;104426.03;5031221;28;20033;-72
2022/03/19 06:29:18;;;;;;;15.43;5.30;;;;;;;15.21;41.45;104428.84;5030478;28;20025;-73
2022/03/19 06:31:44;;;;;;;12.77;4.80;;;;;;;15.23;40.37;104424.50;5029819;28;20088;-72
2022/03/19 06:34:09;;;;;;;12.97;5.13;;;;;;;15.33;40.36;104426.56;5029717;28;20025;-73
2022/03/19 06:39:19;;;;;;;10.90;4.60;;;;;;;15.70;40.20;104422.25;5033140;28;20048;-72
2022/03/19 06:41:44;;;;;;;15.77;5.13;;;;;;;15.65;40.15;104429.13;5029316;28;20055;-73
2022/03/19 06:44:10;;;;;;;10.80;4.80;;;;;;;15.39;40.95;104421.44;5023816;28;20036;-73
2022/03/19 06:46:35;;;;;;;15.63;5.10;;;;;;;15.48;40.48;104420.75;5028148;28;20030;-72
2022/03/19 06:49:01;;;;;;;15.20;5.03;;;;;;;15.82;39.91;104416.41;5012207;28;20528;-73
2022/03/19 06:51:26;;;;;;;10.17;5.37;;;;;;;15.55;39.95;104411.28;5028716;28;20017;-73
2022/03/19 06:53:52;;;;;;;14.47;5.70;;;;;;;14.87;41.65;104420.88;5061847;28;20029;-72
2022/03/19 06:56:18;;;;;;;13.67;5.27;;;;;;;15.52;40.45;104416.47;5029917;28;20052;-73
2022/03/19 06:58:44;;;;;;;16.37;5.30;;;;;;;14.79;41.79;104426.78;5030156;28;20412;-72
2022/03/19 07:01:15;;;;;;;16.33;5.20;;;;;;;14.75;42.29;104421.41;5029125;28;20021;-72
2022/03/19 07:03:44;;;;;;;12.30;5.20;;;;;;;14.31;42.96;104425.28;5030068;28;20029;-73
2022/03/19 07:06:11;;;;;;;13.27;5.33;;;;;;;14.82;42.83;104424.22;5030179;28;20025;-73
2022/03/19 07:08:36;;;;;;;21.03;5.37;;;;;;;15.35;41.52;104419.56;5030031;28;20052;-72
2022/03/19 07:11:02;;;;;;;13.73;5.40;;;;;;;15.47;41.59;104426.00;5030748;28;20029;-72
2022/03/19 07:13:27;;;;;;;12.90;5.40;;;;;;;14.51;43.21;104436.44;5030276;28;20279;-72
2022/03/19 07:15:52;;;;;;;13.90;6.60;;;;;;;15.60;41.48;104428.13;5029637;28;20566;-72
2022/03/19 07:18:17;;;;;;;14.30;5.73;;;;;;;14.74;42.75;104432.78;5029937;28;20034;-72
2022/03/19 07:20:43;;;;;;;19.27;5.87;;;;;;;15.18;41.91;104428.75;5029210;28;20049;-73
2022/03/19 07:23:08;;;;;;;15.60;5.57;;;;;;;16.13;40.56;104424.16;5029476;28;20033;-73
2022/03/19 07:25:38;;;;;;;11.00;5.00;;;;;;;16.42;39.84;104425.72;5029800;28;20031;-73
2022/03/19 07:28:09;;;;;;;15.53;5.37;;;;;;;15.65;41.54;104420.31;5012678;28;20041;-72
2022/03/19 07:30:35;;;;;;;15.53;5.50;;;;;;;15.44;41.80;104421.53;5029565;28;20025;-73
2022/03/19 07:33:00;;;;;;;10.07;4.73;;;;;;;15.41;41.98;104414.47;5029528;28;20033;-72
2022/03/19 07:35:26;;;;;;;16.37;4.97;;;;;;;16.60;39.44;104413.81;5028709;28;20343;-72
2022/03/19 07:37:53;;;;;;;13.90;5.03;;;;;;;15.72;41.14;104412.59;5029001;28;20117;-73
2022/03/19 07:41:45;;;;;;;20.70;6.10;;;;;;;16.40;40.14;104414.25;5030760;28;20022;-72
2022/03/19 07:43:09;;;;;;;13.13;5.17;;;;;;;16.60;40.04;104408.53;5029890;28;20136;-72
2022/03/19 07:45:35;;;;;;;8.03;4.73;;;;;;;16.84;39.19;104401.97;5013104;28;20033;-72
2022/03/19 07:48:00;;;;;;;12.00;5.50;;;;;;;15.71;41.17;104417.84;5030437;28;20492;-72
2022/03/19 07:50:26;;;;;;;18.50;5.17;;;;;;;16.40;39.96;104406.34;5028755;28;20017;-71
2022/03/19 07:52:52;;;;;;;12.33;5.10;;;;;;;17.43;38.42;104410.19;5030535;28;20060;-73
2022/03/19 07:55:18;;;;;;;17.30;4.83;;;;;;;17.48;38.13;104409.38;5028396;28;20056;-72
2022/03/19 07:57:44;;;;;;;10.67;4.40;;;;;;;19.27;34.92;104409.22;5029143;28;20029;-72
2022/03/19 08:00:12;;;;;;;14.60;4.70;;;;;;;19.57;33.64;104397.13;5028844;28;20032;-72
2022/03/19 08:02:38;;;;;;;10.23;3.90;;;;;;;20.50;32.00;104399.53;5031198;28;20525;-72
2022/03/19 08:05:04;;;;;;;12.40;3.97;;;;;;;22.27;29.78;104394.34;5049526;28;20038;-72
2022/03/19 08:07:29;;;;;;;14.97;5.27;;;;;;;22.65;28.63;104390.69;5032999;28;20116;-72
2022/03/19 08:09:55;;;;;;;12.40;4.37;;;;;;;22.57;28.94;104392.50;5032603;28;20453;-72
2022/03/19 08:12:21;;;;;;;13.35;3.70;;;;;;;21.02;30.34;104395.31;5032903;28;20025;-73
2022/03/19 08:14:47;;;;;;;8.70;2.90;;;;;;;21.60;29.58;104401.59;5033209;28;20072;-72
2022/03/19 08:17:12;;;;;;;5.88;2.88;;;;;;;22.09;28.87;104389.97;5033345;28;20029;-72
2022/03/19 08:19:38;;;;;;;9.57;3.05;;;;;;;22.86;27.43;104395.00;5033994;28;20078;-72
2022/03/19 08:22:03;;;;;;;10.45;2.55;;;;;;;22.64;27.04;104391.56;5033654;28;20523;-72
2022/03/19 08:24:29;;;;;;;8.25;3.03;;;;;;;22.28;27.38;104397.00;5032125;28;20068;-72
2022/03/19 08:26:55;;;;;;;8.60;2.95;;;;;;;21.55;28.48;104419.34;5032648;28;20053;-72
2022/03/19 08:29:23;;;;;;;11.85;2.78;;;;;;;21.70;28.56;104414.00;5033957;28;20029;-72
2022/03/19 08:31:50;;;;;;;9.35;3.05;;;;;;;22.47;27.87;104403.19;5032365;28;20028;-72
2022/03/19 08:34:16;;;;;;;8.65;3.33;;;;;;;22.24;26.98;104407.69;5031995;28;20021;-72
2022/03/19 08:36:41;;;;;;;7.70;3.05;;;;;;;21.66;27.81;104402.47;5049203;28;20111;-72
2022/03/19 08:41:51;;;;;;;12.27;3.15;;;;;;;23.57;25.34;104407.00;5034116;28;20409;-73
2022/03/19 08:44:16;;;;;;;11.27;2.97;;;;;;;22.34;26.82;104401.50;5032444;28;20025;-72
2022/03/19 08:46:42;;;;;;;14.30;2.95;;;;;;;23.80;25.38;104406.78;5032017;28;20029;-72
2022/03/19 08:49:07;;;;;;;8.50;2.47;;;;;;;21.83;27.28;104410.44;5031923;28;20025;-73
2022/03/19 08:51:41;;;;;;;12.02;3.13;;;;;;;22.55;26.62;104410.31;5031921;28;20041;-72
2022/03/19 08:54:09;;;;;;;10.25;2.92;;;;;;;22.06;26.98;104400.66;5033367;28;20083;-72
2022/03/19 08:56:36;;;;;;;9.27;2.67;;;;;;;21.56;27.59;104405.16;5032282;28;20167;-72
2022/03/19 08:59:03;;;;;;;7.93;2.50;;;;;;;20.49;28.68;104397.75;5031502;28;20057;-70
2022/03/19 09:01:28;;;;;;;9.73;2.50;;;;;;;21.54;27.44;104396.25;5032242;28;20030;-71
2022/03/19 09:03:54;;;;;;;9.27;2.95;;;;;;;20.31;28.57;104392.34;5031969;28;20078;-73
2022/03/19 09:06:20;;;;;;;17.40;4.35;;;;;;;20.14;29.18;104400.22;5031363;28;20021;-73
2022/03/19 09:08:46;;;;;;;7.65;2.53;;;;;;;20.48;28.58;104395.09;5033317;28;20029;-72
2022/03/19 09:11:12;;;;;;;7.22;3.05;;;;;;;19.15;29.86;104408.25;5031658;28;20029;-73
2022/03/19 09:13:38;;;;;;;6.30;2.30;;;;;;;19.98;28.88;104407.22;5032471;28;20048;-71
2022/03/19 09:16:07;;;;;;;8.87;2.63;;;;;;;19.78;28.65;104394.66;5031662;28;20044;-71
2022/03/19 09:18:33;;;;;;;5.53;2.13;;;;;;;21.37;25.92;104399.78;5031757;28;20068;-71
2022/03/19 09:20:58;;;;;;;5.13;2.08;;;;;;;22.76;24.90;104396.84;5047384;28;20421;-71
2022/03/19 09:23:24;;;;;;;9.25;2.22;;;;;;;22.63;23.92;104389.81;5031732;28;20268;-72
2022/03/19 09:25:49;;;;;;;8.50;2.97;;;;;;;24.71;22.01;104387.91;5048444;28;20088;-71
2022/03/19 09:28:15;;;;;;;10.55;2.50;;;;;;;23.19;22.18;104385.94;5030499;28;20082;-71
2022/03/19 09:30:40;;;;;;;4.00;1.95;;;;;;;22.78;23.59;104394.16;5033627;28;20051;-71
2022/03/19 09:33:06;;;;;;;6.50;2.30;;;;;;;23.58;22.58;104384.75;5032340;28;20060;-71
2022/03/19 09:35:32;;;;;;;8.75;2.22;;;;;;;22.46;22.86;104379.22;5032554;28;20477;-71
2022/03/19 09:37:57;;;;;;;9.43;2.28;;;;;;;23.05;22.38;104382.44;5031342;28;20444;-71
2022/03/19 09:40:23;;;;;;;7.75;2.50;;;;;;;22.18;23.11;104380.16;5031226;28;20481;-71
2022/03/19 09:42:50;;;;;;;6.45;1.65;;;;;;;23.41;21.89;104372.44;5030972;28;20483;-71
2022/03/19 09:45:18;;;;;;;9.23;2.10;;;;;;;23.93;21.73;104375.50;5030767;28;20029;-71
2022/03/19 09:47:44;;;;;;;6.10;2.30;;;;;;;23.82;21.57;104371.16;5032032;28;20481;-71
2022/03/19 09:50:09;;;;;;;4.53;2.03;;;;;;;24.30;20.59;104369.72;5030767;28;20033;-71
2022/03/19 09:52:36;;;;;;;10.52;2.80;;;;;;;24.81;20.22;104359.28;5031282;28;20021;-71
2022/03/19 09:55:02;;;;;;;7.10;1.80;;;;;;;22.15;23.16;104369.53;5014105;28;20034;-71
2022/03/19 09:57:27;;;;;;;6.18;2.38;;;;;;;25.36;20.47;104360.19;5047601;28;20064;-71
2022/03/19 09:59:53;;;;;;;8.40;2.20;;;;;;;25.78;20.14;104346.03;5030631;28;20048;-71
2022/03/19 10:02:18;;;;;;;8.55;2.25;;;;;;;25.63;20.01;104351.69;5030317;28;20437;-71
2022/03/19 10:04:44;;;;;;;6.13;1.83;;;;;;;26.88;19.26;104349.94;5032374;28;20469;-71
2022/03/19 10:09:56;;;;;;;4.93;2.08;;;;;;;25.43;19.11;104333.28;5031787;28;20044;-71
2022/03/19 10:12:25;;;;;;;5.85;2.38;;;;;;;24.25;20.31;104334.16;5030296;28;20036;-71
2022/03/19 10:14:55;;;;;;;6.57;2.10;;;;;;;25.22;18.35;104325.59;5030832;28;20144;-71
2022/03/19 10:17:31;;;;;;;7.45;2.22;;;;;;;23.24;20.34;104324.53;5031114;28;20128;-71
2022/03/19 10:20:12;;;;;;;6.55;2.20;;;;;;;23.43;20.01;104327.03;5030199;28;20029;-72
2022/03/19 10:22:40;;;;;;;4.38;1.50;;;;;;;24.31;19.38;104315.38;5030744;28;20487;-71
2022/03/19 10:25:10;;;;;;;8.10;1.73;;;;;;;24.90;19.46;104315.44;5030453;28;20036;-71
2022/03/19 10:27:45;;;;;;;2.50;1.42;;;;;;;25.35;18.54;104309.38;5030355;28;20029;-72
2022/03/19 10:30:23;;;;;;;5.75;2.53;;;;;;;24.60;18.57;104303.38;5030769;28;20029;-72
2022/03/19 10:32:53;;;;;;;5.05;2.35;;;;;;;24.86;18.44;104305.69;5030579;28;20033;-72
2022/03/19 10:35:29;;;;;;;5.32;1.80;;;;;;;23.69;19.19;104294.72;5030343;28;20382;-71
2022/03/19 10:37:55;;;;;;;8.65;1.77;;;;;;;24.94;19.00;104294.88;5030695;28;20033;-71
2022/03/19 10:40:21;;;;;;;4.95;2.03;;;;;;;26.38;17.68;104287.63;5029995;28;20396;-71
2022/03/19 10:42:46;;;;;;;4.88;1.77;;;;;;;24.08;19.61;104281.81;5030274;28;20037;-71
2022/03/19 10:45:20;;;;;;;4.50;1.75;;;;;;;24.56;19.79;104286.50;5029378;28;20125;-72
2022/03/19 10:47:47;;;;;;;4.80;1.70;;;;;;;25.93;17.40;104274.31;5030457;28;20052;-71
2022/03/19 10:50:23;;;;;;;3.50;1.30;;;;;;;25.22;17.93;104272.06;5030920;28;20029;-71
2022/03/19 10:52:50;;;;;;;2.45;1.50;;;;;;;25.65;17.11;104264.13;5013156;28;20386;-71
2022/03/19 10:55:17;;;;;;;5.40;1.35;;;;;;;25.77;16.36;104263.88;5013565;28;20037;-71
2022/03/19 10:57:44;;;;;;;4.82;1.80;;;;;;;26.00;16.92;104260.72;5030198;28;20033;-72
2022/03/19 11:00:10;;;;;;;3.55;1.60;;;;;;;25.13;17.66;104256.19;5030190;28;20033;-71
2022/03/19 11:02:42;;;;;;;4.35;1.40;;;;;;;24.83;17.54;104258.47;5031402;28;20033;-71
2022/03/19 11:05:10;;;;;;;7.00;2.38;;;;;;;25.82;16.43;104245.06;5028934;28;20079;-71
2022/03/19 11:07:38;;;;;;;6.47;1.90;;;;;;;26.65;16.23;104239.59;5030011;28;20021;-71
2022/03/19 11:10:07;;;;;;;5.60;2.15;;;;;;;26.36;16.85;104235.81;5029623;28;20021;-72
2022/03/19 11:12:34;;;;;;;5.97;2.03;;;;;;;27.77;15.71;104241.97;5030761;28;20112;-71
2022/03/19 11:15:03;;;;;;;4.45;1.50;;;;;;;26.48;15.92;104240.03;5029539;28;20071;-71
2022/03/19 11:17:33;;;;;;;2.42;1.25;;;;;;;26.22;16.32;104234.34;5029479;28;20039;-72
2022/03/19 11:20:05;;;;;;;4.35;1.77;;;;;;;26.14;16.25;104241.69;5028968;28;20029;-71
2022/03/19 11:22:39;;;;;;;2.67;1.52;;;;;;;26.49;15.95;104226.56;5029878;28;20037;-71
2022/03/19 11:25:26;;;;;;;4.03;1.63;;;;;;;26.24;16.81;104208.41;5029597;28;20033;-71
2022/03/19 11:27:55;;;;;;;4.38;1.90;;;;;;;27.01;15.10;104212.75;5028996;28;20041;-72